sensor_id;sensor_type;location;lat;lon;timestamp;P1;durP1;ratioP1;P2;durP2;ratioP2
23388;SDS011;11867;51.198;11.966;2022-12-26T00:00:34;4.10;;;3.70;;
23388;SDS011;11867;51.198;11.966;2022-12-26T00:01:38;3.72;;;2.97;;
23388;SDS011;11867;51.198;11.966;2022-12-26T00:02:41;4.28;;;3.10;;
23388;SDS011;11867;51.198;11.966;2022-12-26T00:03:44;4.35;;;3.00;;
23388;SDS011;11867;51.198;11.966;2022-12-26T00:04:46;3.88;;;3.17;;
23388;SDS011;11867;51.198;11.966;2022-12-26T00:05:55;3.80;;;3.40;;
23388;SDS011;11867;51.198;11.966;2022-12-26T00:06:59;4.57;;;3.20;;
23388;SDS011;11867;51.198;11.966;2022-12-26T00:08:01;4.25;;;3.30;;
23388;SDS011;11867;51.198;11.966;2022-12-26T00:09:04;5.20;;;3.50;;
23388;SDS011;11867;51.198;11.966;2022-12-26T00:10:08;5.63;;;3.22;;
23388;SDS011;11867;51.198;11.966;2022-12-26T00:11:10;5.72;;;3.25;;
23388;SDS011;11867;51.198;11.966;2022-12-26T00:12:13;3.53;;;3.22;;
23388;SDS011;11867;51.198;11.966;2022-12-26T00:13:19;3.33;;;3.03;;
23388;SDS011;11867;51.198;11.966;2022-12-26T00:14:40;3.95;;;3.00;;
23388;SDS011;11867;51.198;11.966;2022-12-26T00:15:43;5.43;;;3.10;;
23388;SDS011;11867;51.198;11.966;2022-12-26T00:16:47;4.00;;;2.65;;
23388;SDS011;11867;51.198;11.966;2022-12-26T00:17:53;3.78;;;2.97;;
23388;SDS011;11867;51.198;11.966;2022-12-26T00:18:55;4.13;;;2.65;;
23388;SDS011;11867;51.198;11.966;2022-12-26T00:19:59;4.10;;;2.83;;
23388;SDS011;11867;51.198;11.966;2022-12-26T00:21:03;3.67;;;2.92;;
23388;SDS011;11867;51.198;11.966;2022-12-26T00:22:06;3.63;;;3.30;;
23388;SDS011;11867;51.198;11.966;2022-12-26T00:23:07;3.25;;;2.60;;
23388;SDS011;11867;51.198;11.966;2022-12-26T00:24:10;3.60;;;3.08;;
23388;SDS011;11867;51.198;11.966;2022-12-26T00:25:13;3.58;;;2.67;;
23388;SDS011;11867;51.198;11.966;2022-12-26T00:26:17;3.90;;;2.45;;
23388;SDS011;11867;51.198;11.966;2022-12-26T00:27:19;3.05;;;2.40;;
23388;SDS011;11867;51.198;11.966;2022-12-26T00:28:22;2.67;;;2.40;;
23388;SDS011;11867;51.198;11.966;2022-12-26T00:29:24;3.95;;;2.38;;
23388;SDS011;11867;51.198;11.966;2022-12-26T00:30:26;3.70;;;2.40;;
23388;SDS011;11867;51.198;11.966;2022-12-26T00:31:29;3.13;;;2.80;;
23388;SDS011;11867;51.198;11.966;2022-12-26T00:32:33;4.10;;;2.65;;
23388;SDS011;11867;51.198;11.966;2022-12-26T00:33:35;2.92;;;2.65;;
23388;SDS011;11867;51.198;11.966;2022-12-26T00:34:39;3.08;;;2.50;;
23388;SDS011;11867;51.198;11.966;2022-12-26T00:35:42;1.92;;;1.77;;
23388;SDS011;11867;51.198;11.966;2022-12-26T00:36:46;3.15;;;2.45;;
23388;SDS011;11867;51.198;11.966;2022-12-26T00:37:53;3.58;;;2.38;;
23388;SDS011;11867;51.198;11.966;2022-12-26T00:38:57;3.33;;;2.50;;
23388;SDS011;11867;51.198;11.966;2022-12-26T00:40:00;2.75;;;2.47;;
23388;SDS011;11867;51.198;11.966;2022-12-26T00:41:02;2.88;;;2.20;;
23388;SDS011;11867;51.198;11.966;2022-12-26T00:42:04;3.33;;;2.53;;
23388;SDS011;11867;51.198;11.966;2022-12-26T00:43:07;3.13;;;2.60;;
23388;SDS011;11867;51.198;11.966;2022-12-26T00:44:09;4.28;;;2.55;;
23388;SDS011;11867;51.198;11.966;2022-12-26T00:45:11;3.45;;;2.50;;
23388;SDS011;11867;51.198;11.966;2022-12-26T00:46:13;4.43;;;2.80;;
23388;SDS011;11867;51.198;11.966;2022-12-26T00:47:16;4.40;;;2.60;;
23388;SDS011;11867;51.198;11.966;2022-12-26T00:48:19;4.20;;;2.88;;
23388;SDS011;11867;51.198;11.966;2022-12-26T00:49:20;2.53;;;1.95;;
23388;SDS011;11867;51.198;11.966;2022-12-26T00:50:23;4.30;;;2.92;;
23388;SDS011;11867;51.198;11.966;2022-12-26T00:51:29;4.20;;;2.50;;
23388;SDS011;11867;51.198;11.966;2022-12-26T00:52:33;3.33;;;2.28;;
23388;SDS011;11867;51.198;11.966;2022-12-26T00:53:35;3.10;;;2.45;;
23388;SDS011;11867;51.198;11.966;2022-12-26T00:54:37;3.67;;;2.67;;
23388;SDS011;11867;51.198;11.966;2022-12-26T00:55:39;4.68;;;2.90;;
23388;SDS011;11867;51.198;11.966;2022-12-26T00:56:41;3.85;;;2.97;;
23388;SDS011;11867;51.198;11.966;2022-12-26T00:57:43;3.75;;;2.40;;
23388;SDS011;11867;51.198;11.966;2022-12-26T00:58:45;3.05;;;2.30;;
23388;SDS011;11867;51.198;11.966;2022-12-26T00:59:47;3.67;;;2.45;;
23388;SDS011;11867;51.198;11.966;2022-12-26T01:00:50;4.50;;;2.58;;
23388;SDS011;11867;51.198;11.966;2022-12-26T01:01:51;3.85;;;2.65;;
23388;SDS011;11867;51.198;11.966;2022-12-26T01:02:54;4.53;;;2.78;;
23388;SDS011;11867;51.198;11.966;2022-12-26T01:03:58;4.75;;;2.40;;
23388;SDS011;11867;51.198;11.966;2022-12-26T01:05:02;2.58;;;2.38;;
23388;SDS011;11867;51.198;11.966;2022-12-26T01:06:04;2.95;;;2.50;;
23388;SDS011;11867;51.198;11.966;2022-12-26T01:07:06;3.08;;;2.40;;
23388;SDS011;11867;51.198;11.966;2022-12-26T01:08:12;2.78;;;2.47;;
23388;SDS011;11867;51.198;11.966;2022-12-26T01:09:24;4.35;;;2.60;;
23388;SDS011;11867;51.198;11.966;2022-12-26T01:10:27;3.28;;;2.60;;
23388;SDS011;11867;51.198;11.966;2022-12-26T01:11:28;4.25;;;2.95;;
23388;SDS011;11867;51.198;11.966;2022-12-26T01:12:43;3.97;;;2.60;;
23388;SDS011;11867;51.198;11.966;2022-12-26T01:13:44;2.42;;;2.22;;
23388;SDS011;11867;51.198;11.966;2022-12-26T01:14:47;3.20;;;2.60;;
23388;SDS011;11867;51.198;11.966;2022-12-26T01:15:49;3.00;;;2.70;;
23388;SDS011;11867;51.198;11.966;2022-12-26T01:16:52;2.80;;;2.53;;
23388;SDS011;11867;51.198;11.966;2022-12-26T01:17:54;2.97;;;2.50;;
23388;SDS011;11867;51.198;11.966;2022-12-26T01:18:56;2.95;;;2.60;;
23388;SDS011;11867;51.198;11.966;2022-12-26T01:19:59;2.65;;;2.10;;
23388;SDS011;11867;51.198;11.966;2022-12-26T01:21:01;3.50;;;3.05;;
23388;SDS011;11867;51.198;11.966;2022-12-26T01:22:05;3.88;;;2.58;;
23388;SDS011;11867;51.198;11.966;2022-12-26T01:23:07;4.82;;;2.50;;
23388;SDS011;11867;51.198;11.966;2022-12-26T01:24:13;3.22;;;2.40;;
23388;SDS011;11867;51.198;11.966;2022-12-26T01:25:15;2.70;;;2.50;;
23388;SDS011;11867;51.198;11.966;2022-12-26T01:26:20;3.88;;;2.42;;
23388;SDS011;11867;51.198;11.966;2022-12-26T01:27:23;2.58;;;2.30;;
23388;SDS011;11867;51.198;11.966;2022-12-26T01:28:26;2.88;;;2.47;;
23388;SDS011;11867;51.198;11.966;2022-12-26T01:29:28;2.97;;;2.20;;
23388;SDS011;11867;51.198;11.966;2022-12-26T01:30:30;4.03;;;2.40;;
23388;SDS011;11867;51.198;11.966;2022-12-26T01:31:32;2.60;;;2.38;;
23388;SDS011;11867;51.198;11.966;2022-12-26T01:32:33;2.45;;;2.20;;
23388;SDS011;11867;51.198;11.966;2022-12-26T01:33:36;3.25;;;2.40;;
23388;SDS011;11867;51.198;11.966;2022-12-26T01:34:37;4.70;;;2.30;;
23388;SDS011;11867;51.198;11.966;2022-12-26T01:35:47;3.47;;;2.28;;
23388;SDS011;11867;51.198;11.966;2022-12-26T01:36:50;3.38;;;2.70;;
23388;SDS011;11867;51.198;11.966;2022-12-26T01:37:54;3.80;;;2.30;;
23388;SDS011;11867;51.198;11.966;2022-12-26T01:38:56;2.90;;;2.50;;
23388;SDS011;11867;51.198;11.966;2022-12-26T01:40:00;2.35;;;2.15;;
23388;SDS011;11867;51.198;11.966;2022-12-26T01:41:02;2.60;;;2.10;;
23388;SDS011;11867;51.198;11.966;2022-12-26T01:42:21;2.35;;;2.15;;
23388;SDS011;11867;51.198;11.966;2022-12-26T01:43:25;2.90;;;2.33;;
23388;SDS011;11867;51.198;11.966;2022-12-26T01:46:10;2.70;;;2.00;;
23388;SDS011;11867;51.198;11.966;2022-12-26T01:47:11;2.40;;;1.85;;
23388;SDS011;11867;51.198;11.966;2022-12-26T01:48:15;2.63;;;2.33;;
23388;SDS011;11867;51.198;11.966;2022-12-26T01:49:25;3.85;;;2.00;;
23388;SDS011;11867;51.198;11.966;2022-12-26T01:50:34;2.53;;;2.10;;
23388;SDS011;11867;51.198;11.966;2022-12-26T01:51:42;2.33;;;1.67;;
23388;SDS011;11867;51.198;11.966;2022-12-26T01:52:54;3.97;;;2.35;;
23388;SDS011;11867;51.198;11.966;2022-12-26T01:53:58;4.18;;;1.90;;
23388;SDS011;11867;51.198;11.966;2022-12-26T01:55:26;2.25;;;2.00;;
23388;SDS011;11867;51.198;11.966;2022-12-26T01:56:33;1.75;;;1.65;;
23388;SDS011;11867;51.198;11.966;2022-12-26T01:57:41;1.98;;;1.75;;
23388;SDS011;11867;51.198;11.966;2022-12-26T01:58:48;2.10;;;1.83;;
23388;SDS011;11867;51.198;11.966;2022-12-26T01:59:54;2.20;;;1.85;;
23388;SDS011;11867;51.198;11.966;2022-12-26T02:00:58;1.80;;;1.63;;
23388;SDS011;11867;51.198;11.966;2022-12-26T02:02:04;3.47;;;1.83;;
23388;SDS011;11867;51.198;11.966;2022-12-26T02:03:07;2.17;;;2.00;;
23388;SDS011;11867;51.198;11.966;2022-12-26T02:04:28;2.13;;;1.90;;
23388;SDS011;11867;51.198;11.966;2022-12-26T02:05:55;2.22;;;1.90;;
23388;SDS011;11867;51.198;11.966;2022-12-26T02:07:09;2.92;;;2.08;;
23388;SDS011;11867;51.198;11.966;2022-12-26T02:08:12;2.20;;;1.48;;
23388;SDS011;11867;51.198;11.966;2022-12-26T02:09:18;2.88;;;2.42;;
23388;SDS011;11867;51.198;11.966;2022-12-26T02:10:20;3.38;;;1.98;;
23388;SDS011;11867;51.198;11.966;2022-12-26T02:11:30;4.10;;;1.98;;
23388;SDS011;11867;51.198;11.966;2022-12-26T02:12:41;3.20;;;2.30;;
23388;SDS011;11867;51.198;11.966;2022-12-26T02:13:46;2.47;;;2.10;;
23388;SDS011;11867;51.198;11.966;2022-12-26T02:14:50;3.80;;;2.17;;
23388;SDS011;11867;51.198;11.966;2022-12-26T02:15:52;2.30;;;2.10;;
23388;SDS011;11867;51.198;11.966;2022-12-26T02:16:54;2.78;;;1.98;;
23388;SDS011;11867;51.198;11.966;2022-12-26T02:17:56;2.67;;;2.20;;
23388;SDS011;11867;51.198;11.966;2022-12-26T02:18:59;2.83;;;2.15;;
23388;SDS011;11867;51.198;11.966;2022-12-26T02:20:02;2.40;;;2.00;;
23388;SDS011;11867;51.198;11.966;2022-12-26T02:21:16;2.67;;;2.10;;
23388;SDS011;11867;51.198;11.966;2022-12-26T02:24:37;2.65;;;2.20;;
23388;SDS011;11867;51.198;11.966;2022-12-26T02:26:13;3.92;;;1.85;;
23388;SDS011;11867;51.198;11.966;2022-12-26T02:27:44;2.53;;;2.00;;
23388;SDS011;11867;51.198;11.966;2022-12-26T02:29:12;3.45;;;1.98;;
23388;SDS011;11867;51.198;11.966;2022-12-26T02:30:32;3.72;;;2.40;;
23388;SDS011;11867;51.198;11.966;2022-12-26T02:31:44;2.20;;;1.85;;
23388;SDS011;11867;51.198;11.966;2022-12-26T02:32:57;2.20;;;2.00;;
23388;SDS011;11867;51.198;11.966;2022-12-26T02:34:10;2.40;;;2.20;;
23388;SDS011;11867;51.198;11.966;2022-12-26T02:35:18;3.10;;;2.03;;
23388;SDS011;11867;51.198;11.966;2022-12-26T02:36:36;3.55;;;2.00;;
23388;SDS011;11867;51.198;11.966;2022-12-26T02:37:53;2.13;;;1.90;;
23388;SDS011;11867;51.198;11.966;2022-12-26T02:39:04;2.38;;;1.83;;
23388;SDS011;11867;51.198;11.966;2022-12-26T02:40:43;3.83;;;2.30;;
23388;SDS011;11867;51.198;11.966;2022-12-26T02:41:54;2.63;;;1.88;;
23388;SDS011;11867;51.198;11.966;2022-12-26T02:43:10;2.90;;;2.03;;
23388;SDS011;11867;51.198;11.966;2022-12-26T02:44:24;2.85;;;2.00;;
23388;SDS011;11867;51.198;11.966;2022-12-26T02:45:48;3.90;;;2.30;;
23388;SDS011;11867;51.198;11.966;2022-12-26T02:47:19;2.85;;;2.00;;
23388;SDS011;11867;51.198;11.966;2022-12-26T02:48:29;2.13;;;1.92;;
23388;SDS011;11867;51.198;11.966;2022-12-26T02:49:40;2.23;;;1.97;;
23388;SDS011;11867;51.198;11.966;2022-12-26T02:51:16;2.65;;;2.05;;
23388;SDS011;11867;51.198;11.966;2022-12-26T02:52:45;3.13;;;2.13;;
23388;SDS011;11867;51.198;11.966;2022-12-26T02:54:14;2.92;;;1.90;;
23388;SDS011;11867;51.198;11.966;2022-12-26T02:55:42;2.45;;;2.25;;
23388;SDS011;11867;51.198;11.966;2022-12-26T02:57:07;3.28;;;2.25;;
23388;SDS011;11867;51.198;11.966;2022-12-26T02:58:35;3.67;;;2.00;;
23388;SDS011;11867;51.198;11.966;2022-12-26T03:00:03;4.15;;;1.90;;
23388;SDS011;11867;51.198;11.966;2022-12-26T03:01:29;4.13;;;2.63;;
23388;SDS011;11867;51.198;11.966;2022-12-26T03:02:55;2.50;;;2.30;;
23388;SDS011;11867;51.198;11.966;2022-12-26T03:04:20;4.03;;;2.10;;
23388;SDS011;11867;51.198;11.966;2022-12-26T03:05:44;2.75;;;2.00;;
23388;SDS011;11867;51.198;11.966;2022-12-26T03:07:11;2.15;;;1.90;;
23388;SDS011;11867;51.198;11.966;2022-12-26T03:08:40;2.30;;;2.10;;
23388;SDS011;11867;51.198;11.966;2022-12-26T03:10:13;3.20;;;2.00;;
23388;SDS011;11867;51.198;11.966;2022-12-26T03:11:38;2.47;;;2.28;;
23388;SDS011;11867;51.198;11.966;2022-12-26T03:13:01;3.72;;;1.85;;
23388;SDS011;11867;51.198;11.966;2022-12-26T03:14:14;2.25;;;1.90;;
23388;SDS011;11867;51.198;11.966;2022-12-26T03:15:19;4.15;;;2.00;;
23388;SDS011;11867;51.198;11.966;2022-12-26T03:16:25;2.78;;;2.08;;
23388;SDS011;11867;51.198;11.966;2022-12-26T03:17:51;4.18;;;2.15;;
23388;SDS011;11867;51.198;11.966;2022-12-26T03:18:59;4.35;;;1.88;;
23388;SDS011;11867;51.198;11.966;2022-12-26T03:20:08;3.60;;;2.42;;
23388;SDS011;11867;51.198;11.966;2022-12-26T03:21:13;5.45;;;2.05;;
23388;SDS011;11867;51.198;11.966;2022-12-26T03:22:18;2.30;;;2.10;;
23388;SDS011;11867;51.198;11.966;2022-12-26T03:23:34;2.45;;;2.05;;
23388;SDS011;11867;51.198;11.966;2022-12-26T03:24:41;3.30;;;2.15;;
23388;SDS011;11867;51.198;11.966;2022-12-26T03:25:58;2.70;;;2.40;;
23388;SDS011;11867;51.198;11.966;2022-12-26T03:27:22;3.38;;;2.03;;
23388;SDS011;11867;51.198;11.966;2022-12-26T03:28:25;2.90;;;2.13;;
23388;SDS011;11867;51.198;11.966;2022-12-26T03:29:27;2.30;;;2.10;;
23388;SDS011;11867;51.198;11.966;2022-12-26T03:30:47;2.20;;;2.00;;
23388;SDS011;11867;51.198;11.966;2022-12-26T03:31:49;2.20;;;2.00;;
23388;SDS011;11867;51.198;11.966;2022-12-26T03:32:52;3.67;;;2.17;;
23388;SDS011;11867;51.198;11.966;2022-12-26T03:34:03;2.67;;;2.00;;
23388;SDS011;11867;51.198;11.966;2022-12-26T03:35:18;2.10;;;1.90;;
23388;SDS011;11867;51.198;11.966;2022-12-26T03:36:24;2.38;;;2.03;;
23388;SDS011;11867;51.198;11.966;2022-12-26T03:37:40;2.17;;;2.05;;
23388;SDS011;11867;51.198;11.966;2022-12-26T03:38:52;3.15;;;2.00;;
23388;SDS011;11867;51.198;11.966;2022-12-26T03:40:11;3.95;;;2.40;;
23388;SDS011;11867;51.198;11.966;2022-12-26T03:41:46;4.10;;;2.00;;
23388;SDS011;11867;51.198;11.966;2022-12-26T03:43:15;2.63;;;2.05;;
23388;SDS011;11867;51.198;11.966;2022-12-26T03:44:47;2.58;;;2.10;;
23388;SDS011;11867;51.198;11.966;2022-12-26T03:46:15;2.47;;;1.90;;
23388;SDS011;11867;51.198;11.966;2022-12-26T03:47:43;3.28;;;2.13;;
23388;SDS011;11867;51.198;11.966;2022-12-26T03:49:15;3.97;;;2.00;;
23388;SDS011;11867;51.198;11.966;2022-12-26T03:50:42;3.22;;;1.90;;
23388;SDS011;11867;51.198;11.966;2022-12-26T03:52:07;2.17;;;1.98;;
23388;SDS011;11867;51.198;11.966;2022-12-26T03:53:33;2.33;;;1.80;;
23388;SDS011;11867;51.198;11.966;2022-12-26T03:55:09;2.65;;;2.20;;
23388;SDS011;11867;51.198;11.966;2022-12-26T03:56:34;2.45;;;1.92;;
23388;SDS011;11867;51.198;11.966;2022-12-26T03:58:00;2.95;;;2.22;;
23388;SDS011;11867;51.198;11.966;2022-12-26T03:59:25;2.47;;;2.28;;
23388;SDS011;11867;51.198;11.966;2022-12-26T04:01:05;3.33;;;1.98;;
23388;SDS011;11867;51.198;11.966;2022-12-26T04:02:29;2.70;;;1.98;;
23388;SDS011;11867;51.198;11.966;2022-12-26T04:03:52;3.80;;;1.83;;
23388;SDS011;11867;51.198;11.966;2022-12-26T04:05:17;1.90;;;1.80;;
23388;SDS011;11867;51.198;11.966;2022-12-26T04:06:40;3.10;;;2.10;;
23388;SDS011;11867;51.198;11.966;2022-12-26T04:08:05;2.92;;;1.80;;
23388;SDS011;11867;51.198;11.966;2022-12-26T04:09:38;3.13;;;2.00;;
23388;SDS011;11867;51.198;11.966;2022-12-26T04:11:05;3.47;;;2.28;;
23388;SDS011;11867;51.198;11.966;2022-12-26T04:12:32;2.78;;;2.13;;
23388;SDS011;11867;51.198;11.966;2022-12-26T04:13:59;2.00;;;1.88;;
23388;SDS011;11867;51.198;11.966;2022-12-26T04:15:24;3.45;;;2.40;;
23388;SDS011;11867;51.198;11.966;2022-12-26T04:16:52;3.50;;;2.00;;
23388;SDS011;11867;51.198;11.966;2022-12-26T04:18:18;2.53;;;2.03;;
23388;SDS011;11867;51.198;11.966;2022-12-26T04:19:52;2.40;;;2.00;;
23388;SDS011;11867;51.198;11.966;2022-12-26T04:21:05;2.28;;;1.88;;
23388;SDS011;11867;51.198;11.966;2022-12-26T04:22:33;3.17;;;1.90;;
23388;SDS011;11867;51.198;11.966;2022-12-26T04:23:59;5.70;;;2.00;;
23388;SDS011;11867;51.198;11.966;2022-12-26T04:25:26;4.75;;;1.90;;
23388;SDS011;11867;51.198;11.966;2022-12-26T04:26:53;2.28;;;2.08;;
23388;SDS011;11867;51.198;11.966;2022-12-26T04:28:17;3.63;;;1.98;;
23388;SDS011;11867;51.198;11.966;2022-12-26T04:31:00;5.10;;;2.20;;
23388;SDS011;11867;51.198;11.966;2022-12-26T04:32:27;2.85;;;2.17;;
23388;SDS011;11867;51.198;11.966;2022-12-26T04:33:55;1.83;;;1.70;;
23388;SDS011;11867;51.198;11.966;2022-12-26T04:35:20;2.45;;;1.70;;
23388;SDS011;11867;51.198;11.966;2022-12-26T04:36:53;5.47;;;2.10;;
23388;SDS011;11867;51.198;11.966;2022-12-26T04:38:19;2.20;;;2.00;;
23388;SDS011;11867;51.198;11.966;2022-12-26T04:39:43;2.55;;;2.03;;
23388;SDS011;11867;51.198;11.966;2022-12-26T04:41:08;2.53;;;2.17;;
23388;SDS011;11867;51.198;11.966;2022-12-26T04:42:30;2.70;;;1.67;;
23388;SDS011;11867;51.198;11.966;2022-12-26T04:43:54;2.65;;;2.10;;
23388;SDS011;11867;51.198;11.966;2022-12-26T04:45:07;2.20;;;1.80;;
23388;SDS011;11867;51.198;11.966;2022-12-26T04:46:11;2.33;;;2.00;;
23388;SDS011;11867;51.198;11.966;2022-12-26T04:47:18;2.28;;;2.03;;
23388;SDS011;11867;51.198;11.966;2022-12-26T04:48:19;2.33;;;1.77;;
23388;SDS011;11867;51.198;11.966;2022-12-26T04:49:42;2.63;;;1.70;;
23388;SDS011;11867;51.198;11.966;2022-12-26T04:51:03;2.00;;;1.67;;
23388;SDS011;11867;51.198;11.966;2022-12-26T04:52:08;2.33;;;1.70;;
23388;SDS011;11867;51.198;11.966;2022-12-26T04:53:13;3.58;;;2.00;;
23388;SDS011;11867;51.198;11.966;2022-12-26T04:54:16;3.25;;;2.00;;
23388;SDS011;11867;51.198;11.966;2022-12-26T04:55:18;3.22;;;1.75;;
23388;SDS011;11867;51.198;11.966;2022-12-26T04:56:22;2.28;;;2.00;;
23388;SDS011;11867;51.198;11.966;2022-12-26T04:57:24;4.15;;;2.22;;
23388;SDS011;11867;51.198;11.966;2022-12-26T04:58:27;2.50;;;2.10;;
23388;SDS011;11867;51.198;11.966;2022-12-26T04:59:31;2.20;;;1.70;;
23388;SDS011;11867;51.198;11.966;2022-12-26T05:00:34;2.38;;;2.17;;
23388;SDS011;11867;51.198;11.966;2022-12-26T05:01:38;3.20;;;1.90;;
23388;SDS011;11867;51.198;11.966;2022-12-26T05:03:02;5.28;;;2.40;;
23388;SDS011;11867;51.198;11.966;2022-12-26T05:04:37;3.05;;;2.45;;
23388;SDS011;11867;51.198;11.966;2022-12-26T05:05:57;2.40;;;1.98;;
23388;SDS011;11867;51.198;11.966;2022-12-26T05:07:19;2.40;;;2.20;;
23388;SDS011;11867;51.198;11.966;2022-12-26T05:08:42;3.45;;;2.10;;
23388;SDS011;11867;51.198;11.966;2022-12-26T05:10:05;4.65;;;2.28;;
23388;SDS011;11867;51.198;11.966;2022-12-26T05:11:11;2.40;;;2.00;;
23388;SDS011;11867;51.198;11.966;2022-12-26T05:12:13;3.20;;;2.20;;
23388;SDS011;11867;51.198;11.966;2022-12-26T05:13:15;3.28;;;2.00;;
23388;SDS011;11867;51.198;11.966;2022-12-26T05:14:17;2.33;;;1.92;;
23388;SDS011;11867;51.198;11.966;2022-12-26T05:15:19;2.35;;;1.98;;
23388;SDS011;11867;51.198;11.966;2022-12-26T05:16:22;2.10;;;1.80;;
23388;SDS011;11867;51.198;11.966;2022-12-26T05:17:43;4.03;;;1.95;;
23388;SDS011;11867;51.198;11.966;2022-12-26T05:19:08;2.25;;;1.80;;
23388;SDS011;11867;51.198;11.966;2022-12-26T05:20:26;4.38;;;2.13;;
23388;SDS011;11867;51.198;11.966;2022-12-26T05:21:42;2.70;;;2.50;;
23388;SDS011;11867;51.198;11.966;2022-12-26T05:23:04;2.85;;;2.15;;
23388;SDS011;11867;51.198;11.966;2022-12-26T05:24:35;2.13;;;1.65;;
23388;SDS011;11867;51.198;11.966;2022-12-26T05:25:58;2.42;;;1.90;;
23388;SDS011;11867;51.198;11.966;2022-12-26T05:27:18;3.30;;;1.80;;
23388;SDS011;11867;51.198;11.966;2022-12-26T05:28:39;3.80;;;2.53;;
23388;SDS011;11867;51.198;11.966;2022-12-26T05:29:45;3.47;;;2.10;;
23388;SDS011;11867;51.198;11.966;2022-12-26T05:30:49;2.28;;;1.88;;
23388;SDS011;11867;51.198;11.966;2022-12-26T05:31:51;3.35;;;1.90;;
23388;SDS011;11867;51.198;11.966;2022-12-26T05:32:55;3.92;;;2.10;;
23388;SDS011;11867;51.198;11.966;2022-12-26T05:34:15;2.40;;;2.10;;
23388;SDS011;11867;51.198;11.966;2022-12-26T05:35:20;3.03;;;2.00;;
23388;SDS011;11867;51.198;11.966;2022-12-26T05:36:23;3.88;;;2.17;;
23388;SDS011;11867;51.198;11.966;2022-12-26T05:37:28;2.42;;;1.98;;
23388;SDS011;11867;51.198;11.966;2022-12-26T05:38:31;3.30;;;2.13;;
23388;SDS011;11867;51.198;11.966;2022-12-26T05:39:34;2.75;;;1.80;;
23388;SDS011;11867;51.198;11.966;2022-12-26T05:40:35;2.50;;;2.20;;
23388;SDS011;11867;51.198;11.966;2022-12-26T05:41:38;2.42;;;2.20;;
23388;SDS011;11867;51.198;11.966;2022-12-26T05:42:40;2.97;;;1.70;;
23388;SDS011;11867;51.198;11.966;2022-12-26T05:43:43;1.88;;;1.63;;
23388;SDS011;11867;51.198;11.966;2022-12-26T05:44:48;2.75;;;2.03;;
23388;SDS011;11867;51.198;11.966;2022-12-26T05:45:51;5.70;;;2.42;;
23388;SDS011;11867;51.198;11.966;2022-12-26T05:46:52;5.20;;;2.20;;
23388;SDS011;11867;51.198;11.966;2022-12-26T05:47:56;3.35;;;1.90;;
23388;SDS011;11867;51.198;11.966;2022-12-26T05:48:58;2.88;;;2.15;;
23388;SDS011;11867;51.198;11.966;2022-12-26T05:50:04;6.32;;;2.38;;
23388;SDS011;11867;51.198;11.966;2022-12-26T05:51:06;2.78;;;2.17;;
23388;SDS011;11867;51.198;11.966;2022-12-26T05:52:09;3.92;;;1.88;;
23388;SDS011;11867;51.198;11.966;2022-12-26T05:53:10;2.05;;;1.80;;
23388;SDS011;11867;51.198;11.966;2022-12-26T05:54:14;2.92;;;1.77;;
23388;SDS011;11867;51.198;11.966;2022-12-26T05:55:17;4.20;;;2.30;;
23388;SDS011;11867;51.198;11.966;2022-12-26T05:56:19;3.75;;;2.33;;
23388;SDS011;11867;51.198;11.966;2022-12-26T05:57:22;3.30;;;2.53;;
23388;SDS011;11867;51.198;11.966;2022-12-26T05:58:23;2.38;;;2.17;;
23388;SDS011;11867;51.198;11.966;2022-12-26T05:59:26;6.25;;;2.15;;
23388;SDS011;11867;51.198;11.966;2022-12-26T06:00:28;2.03;;;1.83;;
23388;SDS011;11867;51.198;11.966;2022-12-26T06:01:31;8.40;;;2.50;;
23388;SDS011;11867;51.198;11.966;2022-12-26T06:02:34;5.07;;;2.25;;
23388;SDS011;11867;51.198;11.966;2022-12-26T06:03:36;2.80;;;2.30;;
23388;SDS011;11867;51.198;11.966;2022-12-26T06:04:39;2.30;;;2.10;;
23388;SDS011;11867;51.198;11.966;2022-12-26T06:05:41;2.92;;;2.00;;
23388;SDS011;11867;51.198;11.966;2022-12-26T06:06:43;2.88;;;2.40;;
23388;SDS011;11867;51.198;11.966;2022-12-26T06:07:46;3.50;;;2.00;;
23388;SDS011;11867;51.198;11.966;2022-12-26T06:08:49;3.35;;;2.03;;
23388;SDS011;11867;51.198;11.966;2022-12-26T06:09:54;2.58;;;2.10;;
23388;SDS011;11867;51.198;11.966;2022-12-26T06:10:55;5.18;;;2.30;;
23388;SDS011;11867;51.198;11.966;2022-12-26T06:11:58;3.90;;;2.28;;
23388;SDS011;11867;51.198;11.966;2022-12-26T06:12:59;2.97;;;2.25;;
23388;SDS011;11867;51.198;11.966;2022-12-26T06:14:02;3.67;;;2.15;;
23388;SDS011;11867;51.198;11.966;2022-12-26T06:15:05;3.15;;;2.42;;
23388;SDS011;11867;51.198;11.966;2022-12-26T06:16:09;2.25;;;1.90;;
23388;SDS011;11867;51.198;11.966;2022-12-26T06:17:12;2.63;;;2.13;;
23388;SDS011;11867;51.198;11.966;2022-12-26T06:18:15;4.03;;;2.30;;
23388;SDS011;11867;51.198;11.966;2022-12-26T06:19:17;2.97;;;2.20;;
23388;SDS011;11867;51.198;11.966;2022-12-26T06:20:19;4.18;;;2.08;;
23388;SDS011;11867;51.198;11.966;2022-12-26T06:21:21;4.63;;;2.20;;
23388;SDS011;11867;51.198;11.966;2022-12-26T06:22:23;2.10;;;1.90;;
23388;SDS011;11867;51.198;11.966;2022-12-26T06:23:27;4.20;;;2.20;;
23388;SDS011;11867;51.198;11.966;2022-12-26T06:24:29;3.92;;;2.15;;
23388;SDS011;11867;51.198;11.966;2022-12-26T06:25:33;3.63;;;2.00;;
23388;SDS011;11867;51.198;11.966;2022-12-26T06:26:36;2.53;;;2.08;;
23388;SDS011;11867;51.198;11.966;2022-12-26T06:27:38;6.43;;;2.40;;
23388;SDS011;11867;51.198;11.966;2022-12-26T06:28:41;3.35;;;2.00;;
23388;SDS011;11867;51.198;11.966;2022-12-26T06:29:44;4.55;;;2.00;;
23388;SDS011;11867;51.198;11.966;2022-12-26T06:30:47;4.20;;;2.03;;
23388;SDS011;11867;51.198;11.966;2022-12-26T06:31:48;4.03;;;2.33;;
23388;SDS011;11867;51.198;11.966;2022-12-26T06:32:51;4.22;;;1.98;;
23388;SDS011;11867;51.198;11.966;2022-12-26T06:33:54;4.20;;;2.35;;
23388;SDS011;11867;51.198;11.966;2022-12-26T06:34:58;2.28;;;1.88;;
23388;SDS011;11867;51.198;11.966;2022-12-26T06:36:03;2.20;;;2.00;;
23388;SDS011;11867;51.198;11.966;2022-12-26T06:37:07;2.60;;;2.15;;
23388;SDS011;11867;51.198;11.966;2022-12-26T06:38:09;3.15;;;2.38;;
23388;SDS011;11867;51.198;11.966;2022-12-26T06:39:11;3.35;;;2.15;;
23388;SDS011;11867;51.198;11.966;2022-12-26T06:40:14;3.05;;;2.20;;
23388;SDS011;11867;51.198;11.966;2022-12-26T06:41:17;3.78;;;2.05;;
23388;SDS011;11867;51.198;11.966;2022-12-26T06:42:21;4.60;;;2.20;;
23388;SDS011;11867;51.198;11.966;2022-12-26T06:43:23;2.63;;;2.05;;
23388;SDS011;11867;51.198;11.966;2022-12-26T06:44:26;3.95;;;2.30;;
23388;SDS011;11867;51.198;11.966;2022-12-26T06:45:27;2.30;;;2.10;;
23388;SDS011;11867;51.198;11.966;2022-12-26T06:46:30;7.22;;;2.00;;
23388;SDS011;11867;51.198;11.966;2022-12-26T06:47:33;2.65;;;2.25;;
23388;SDS011;11867;51.198;11.966;2022-12-26T06:48:36;3.17;;;2.10;;
23388;SDS011;11867;51.198;11.966;2022-12-26T06:49:40;2.60;;;2.35;;
23388;SDS011;11867;51.198;11.966;2022-12-26T06:50:44;3.10;;;2.20;;
23388;SDS011;11867;51.198;11.966;2022-12-26T06:51:46;2.20;;;2.03;;
23388;SDS011;11867;51.198;11.966;2022-12-26T06:52:48;3.72;;;2.17;;
23388;SDS011;11867;51.198;11.966;2022-12-26T06:53:50;3.30;;;2.00;;
23388;SDS011;11867;51.198;11.966;2022-12-26T06:54:53;2.58;;;1.98;;
23388;SDS011;11867;51.198;11.966;2022-12-26T06:56:03;2.95;;;2.33;;
23388;SDS011;11867;51.198;11.966;2022-12-26T06:57:08;3.30;;;2.17;;
23388;SDS011;11867;51.198;11.966;2022-12-26T06:58:09;3.22;;;2.10;;
23388;SDS011;11867;51.198;11.966;2022-12-26T06:59:12;4.28;;;2.55;;
23388;SDS011;11867;51.198;11.966;2022-12-26T07:00:15;2.78;;;2.40;;